sensor_id;sensor_type;location;lat;lon;timestamp;P1;durP1;ratioP1;P2;durP2;ratioP2
67191;SDS011;54120;53.504;49.426;2023-07-29T00:00:57;21.05;;;8.05;;
67191;SDS011;54120;53.504;49.426;2023-07-29T00:03:25;16.75;;;8.20;;
67191;SDS011;54120;53.504;49.426;2023-07-29T00:05:51;18.38;;;7.90;;
67191;SDS011;54120;53.504;49.426;2023-07-29T00:08:18;15.40;;;8.15;;
67191;SDS011;54120;53.504;49.426;2023-07-29T00:10:44;16.60;;;7.53;;
67191;SDS011;54120;53.504;49.426;2023-07-29T00:13:10;17.83;;;8.13;;
67191;SDS011;54120;53.504;49.426;2023-07-29T00:15:36;19.00;;;7.55;;
67191;SDS011;54120;53.504;49.426;2023-07-29T00:18:02;14.75;;;7.20;;
67191;SDS011;54120;53.504;49.426;2023-07-29T00:20:28;18.60;;;7.60;;
67191;SDS011;54120;53.504;49.426;2023-07-29T00:22:54;13.23;;;7.50;;
67191;SDS011;54120;53.504;49.426;2023-07-29T00:25:20;12.90;;;7.20;;
67191;SDS011;54120;53.504;49.426;2023-07-29T00:27:47;11.57;;;7.10;;
67191;SDS011;54120;53.504;49.426;2023-07-29T00:30:14;15.90;;;7.40;;
67191;SDS011;54120;53.504;49.426;2023-07-29T00:32:40;13.77;;;7.63;;
67191;SDS011;54120;53.504;49.426;2023-07-29T00:35:06;12.73;;;6.93;;
67191;SDS011;54120;53.504;49.426;2023-07-29T00:37:32;20.40;;;7.35;;
67191;SDS011;54120;53.504;49.426;2023-07-29T00:39:58;13.40;;;6.90;;
67191;SDS011;54120;53.504;49.426;2023-07-29T00:42:25;12.82;;;6.90;;
67191;SDS011;54120;53.504;49.426;2023-07-29T00:44:51;14.43;;;7.03;;
67191;SDS011;54120;53.504;49.426;2023-07-29T00:47:17;11.85;;;6.57;;
67191;SDS011;54120;53.504;49.426;2023-07-29T00:49:44;11.18;;;6.70;;
67191;SDS011;54120;53.504;49.426;2023-07-29T00:52:11;10.95;;;6.57;;
67191;SDS011;54120;53.504;49.426;2023-07-29T00:54:38;16.02;;;6.50;;
67191;SDS011;54120;53.504;49.426;2023-07-29T00:57:06;10.50;;;6.20;;
67191;SDS011;54120;53.504;49.426;2023-07-29T00:59:34;15.57;;;6.88;;
67191;SDS011;54120;53.504;49.426;2023-07-29T01:02:01;16.10;;;6.63;;
67191;SDS011;54120;53.504;49.426;2023-07-29T01:04:28;13.85;;;6.50;;
67191;SDS011;54120;53.504;49.426;2023-07-29T01:12:47;12.77;;;6.10;;
67191;SDS011;54120;53.504;49.426;2023-07-29T01:15:26;10.38;;;6.35;;
67191;SDS011;54120;53.504;49.426;2023-07-29T01:18:01;10.43;;;6.25;;
67191;SDS011;54120;53.504;49.426;2023-07-29T01:20:32;16.88;;;5.95;;
67191;SDS011;54120;53.504;49.426;2023-07-29T01:22:59;12.52;;;6.07;;
67191;SDS011;54120;53.504;49.426;2023-07-29T01:25:25;14.75;;;6.22;;
67191;SDS011;54120;53.504;49.426;2023-07-29T01:27:52;12.02;;;6.43;;
67191;SDS011;54120;53.504;49.426;2023-07-29T01:30:22;14.55;;;6.60;;
67191;SDS011;54120;53.504;49.426;2023-07-29T01:33:06;12.60;;;5.70;;
67191;SDS011;54120;53.504;49.426;2023-07-29T01:35:50;11.57;;;6.22;;
67191;SDS011;54120;53.504;49.426;2023-07-29T01:38:43;12.30;;;5.88;;
67191;SDS011;54120;53.504;49.426;2023-07-29T01:41:09;14.65;;;6.20;;
67191;SDS011;54120;53.504;49.426;2023-07-29T01:43:36;22.30;;;6.35;;
67191;SDS011;54120;53.504;49.426;2023-07-29T01:46:15;16.63;;;6.18;;
67191;SDS011;54120;53.504;49.426;2023-07-29T01:48:41;13.15;;;6.43;;
67191;SDS011;54120;53.504;49.426;2023-07-29T01:51:08;12.27;;;6.28;;
67191;SDS011;54120;53.504;49.426;2023-07-29T01:53:37;14.95;;;6.40;;
67191;SDS011;54120;53.504;49.426;2023-07-29T01:56:03;17.92;;;7.45;;
67191;SDS011;54120;53.504;49.426;2023-07-29T01:58:29;20.58;;;6.72;;
67191;SDS011;54120;53.504;49.426;2023-07-29T02:00:55;13.02;;;6.20;;
67191;SDS011;54120;53.504;49.426;2023-07-29T02:03:21;13.55;;;6.50;;
67191;SDS011;54120;53.504;49.426;2023-07-29T02:05:47;12.18;;;6.25;;
67191;SDS011;54120;53.504;49.426;2023-07-29T02:08:13;15.70;;;6.03;;
67191;SDS011;54120;53.504;49.426;2023-07-29T02:10:39;9.00;;;5.80;;
67191;SDS011;54120;53.504;49.426;2023-07-29T02:13:06;14.20;;;6.13;;
67191;SDS011;54120;53.504;49.426;2023-07-29T02:15:32;15.35;;;6.20;;
67191;SDS011;54120;53.504;49.426;2023-07-29T02:17:58;11.88;;;6.05;;
67191;SDS011;54120;53.504;49.426;2023-07-29T02:20:24;10.48;;;5.70;;
67191;SDS011;54120;53.504;49.426;2023-07-29T02:22:50;10.52;;;6.25;;
67191;SDS011;54120;53.504;49.426;2023-07-29T02:25:16;13.75;;;5.95;;
67191;SDS011;54120;53.504;49.426;2023-07-29T02:27:42;12.02;;;5.75;;
67191;SDS011;54120;53.504;49.426;2023-07-29T02:30:09;15.27;;;6.32;;
67191;SDS011;54120;53.504;49.426;2023-07-29T02:32:36;18.02;;;6.43;;
67191;SDS011;54120;53.504;49.426;2023-07-29T02:35:02;15.98;;;6.18;;
67191;SDS011;54120;53.504;49.426;2023-07-29T02:37:28;11.55;;;5.68;;
67191;SDS011;54120;53.504;49.426;2023-07-29T02:39:54;13.50;;;5.72;;
67191;SDS011;54120;53.504;49.426;2023-07-29T02:42:20;12.10;;;6.07;;
67191;SDS011;54120;53.504;49.426;2023-07-29T02:44:46;15.68;;;6.38;;
67191;SDS011;54120;53.504;49.426;2023-07-29T02:47:12;12.90;;;6.05;;
67191;SDS011;54120;53.504;49.426;2023-07-29T02:49:38;11.82;;;6.00;;
67191;SDS011;54120;53.504;49.426;2023-07-29T02:52:04;13.65;;;5.88;;
67191;SDS011;54120;53.504;49.426;2023-07-29T02:54:31;10.02;;;5.40;;
67191;SDS011;54120;53.504;49.426;2023-07-29T02:56:57;10.32;;;5.72;;
67191;SDS011;54120;53.504;49.426;2023-07-29T02:59:23;17.05;;;5.65;;
67191;SDS011;54120;53.504;49.426;2023-07-29T03:01:49;12.15;;;5.60;;
67191;SDS011;54120;53.504;49.426;2023-07-29T03:04:15;7.80;;;4.70;;
67191;SDS011;54120;53.504;49.426;2023-07-29T03:06:41;17.25;;;5.80;;
67191;SDS011;54120;53.504;49.426;2023-07-29T03:09:08;13.63;;;5.10;;
67191;SDS011;54120;53.504;49.426;2023-07-29T03:11:34;13.30;;;5.68;;
67191;SDS011;54120;53.504;49.426;2023-07-29T03:14:00;13.77;;;5.47;;
67191;SDS011;54120;53.504;49.426;2023-07-29T03:16:26;13.93;;;5.22;;
67191;SDS011;54120;53.504;49.426;2023-07-29T03:18:52;14.80;;;5.32;;
67191;SDS011;54120;53.504;49.426;2023-07-29T03:21:18;17.00;;;5.63;;
67191;SDS011;54120;53.504;49.426;2023-07-29T03:23:44;9.27;;;5.15;;
67191;SDS011;54120;53.504;49.426;2023-07-29T03:26:10;11.63;;;5.30;;
67191;SDS011;54120;53.504;49.426;2023-07-29T03:28:37;10.88;;;5.22;;
67191;SDS011;54120;53.504;49.426;2023-07-29T03:31:09;10.65;;;5.22;;
67191;SDS011;54120;53.504;49.426;2023-07-29T03:33:36;9.77;;;4.80;;
67191;SDS011;54120;53.504;49.426;2023-07-29T03:36:02;9.38;;;5.05;;
67191;SDS011;54120;53.504;49.426;2023-07-29T03:38:28;9.63;;;4.95;;
67191;SDS011;54120;53.504;49.426;2023-07-29T03:40:54;10.50;;;4.78;;
67191;SDS011;54120;53.504;49.426;2023-07-29T03:43:20;7.30;;;4.63;;
67191;SDS011;54120;53.504;49.426;2023-07-29T03:45:46;9.45;;;4.78;;
67191;SDS011;54120;53.504;49.426;2023-07-29T03:48:12;13.20;;;4.68;;
67191;SDS011;54120;53.504;49.426;2023-07-29T03:50:38;15.15;;;4.72;;
67191;SDS011;54120;53.504;49.426;2023-07-29T03:53:04;8.65;;;4.53;;
67191;SDS011;54120;53.504;49.426;2023-07-29T03:55:31;13.65;;;4.78;;
67191;SDS011;54120;53.504;49.426;2023-07-29T03:57:58;9.38;;;4.57;;
67191;SDS011;54120;53.504;49.426;2023-07-29T04:00:25;12.75;;;4.70;;
67191;SDS011;54120;53.504;49.426;2023-07-29T04:02:51;7.97;;;4.68;;
67191;SDS011;54120;53.504;49.426;2023-07-29T04:05:17;7.90;;;4.15;;
67191;SDS011;54120;53.504;49.426;2023-07-29T04:07:43;10.95;;;4.50;;
67191;SDS011;54120;53.504;49.426;2023-07-29T04:10:10;7.32;;;4.15;;
67191;SDS011;54120;53.504;49.426;2023-07-29T04:12:36;7.10;;;4.25;;
67191;SDS011;54120;53.504;49.426;2023-07-29T04:15:02;9.60;;;4.45;;
67191;SDS011;54120;53.504;49.426;2023-07-29T04:17:29;9.40;;;4.53;;
67191;SDS011;54120;53.504;49.426;2023-07-29T04:19:55;7.45;;;4.28;;
67191;SDS011;54120;53.504;49.426;2023-07-29T04:22:21;8.25;;;4.20;;
67191;SDS011;54120;53.504;49.426;2023-07-29T04:24:47;7.28;;;4.22;;
67191;SDS011;54120;53.504;49.426;2023-07-29T04:27:13;6.20;;;3.85;;
67191;SDS011;54120;53.504;49.426;2023-07-29T04:29:40;9.00;;;4.45;;
67191;SDS011;54120;53.504;49.426;2023-07-29T04:32:06;7.03;;;3.97;;
67191;SDS011;54120;53.504;49.426;2023-07-29T04:34:32;9.98;;;3.90;;
67191;SDS011;54120;53.504;49.426;2023-07-29T04:36:58;9.63;;;4.03;;
67191;SDS011;54120;53.504;49.426;2023-07-29T04:39:24;7.13;;;3.50;;
67191;SDS011;54120;53.504;49.426;2023-07-29T04:41:50;6.65;;;3.38;;
67191;SDS011;54120;53.504;49.426;2023-07-29T04:44:16;6.80;;;4.25;;
67191;SDS011;54120;53.504;49.426;2023-07-29T04:46:42;7.35;;;3.85;;
67191;SDS011;54120;53.504;49.426;2023-07-29T04:49:08;14.30;;;4.22;;
67191;SDS011;54120;53.504;49.426;2023-07-29T04:51:34;16.70;;;4.20;;
67191;SDS011;54120;53.504;49.426;2023-07-29T04:54:00;7.47;;;3.88;;
67191;SDS011;54120;53.504;49.426;2023-07-29T04:56:26;7.28;;;3.65;;
67191;SDS011;54120;53.504;49.426;2023-07-29T04:58:52;6.30;;;3.90;;
67191;SDS011;54120;53.504;49.426;2023-07-29T05:01:19;6.88;;;3.75;;
67191;SDS011;54120;53.504;49.426;2023-07-29T05:03:45;8.95;;;3.55;;
67191;SDS011;54120;53.504;49.426;2023-07-29T05:06:11;8.23;;;4.10;;
67191;SDS011;54120;53.504;49.426;2023-07-29T05:08:37;11.15;;;4.28;;
67191;SDS011;54120;53.504;49.426;2023-07-29T05:11:03;5.50;;;3.78;;
67191;SDS011;54120;53.504;49.426;2023-07-29T05:13:29;10.93;;;3.97;;
67191;SDS011;54120;53.504;49.426;2023-07-29T05:15:55;7.35;;;3.95;;
67191;SDS011;54120;53.504;49.426;2023-07-29T05:18:21;10.27;;;4.18;;
67191;SDS011;54120;53.504;49.426;2023-07-29T05:20:47;7.78;;;3.85;;
67191;SDS011;54120;53.504;49.426;2023-07-29T05:23:13;8.63;;;4.10;;
67191;SDS011;54120;53.504;49.426;2023-07-29T05:25:39;15.05;;;4.20;;
67191;SDS011;54120;53.504;49.426;2023-07-29T05:28:06;7.75;;;4.15;;
67191;SDS011;54120;53.504;49.426;2023-07-29T05:30:32;10.27;;;4.05;;
67191;SDS011;54120;53.504;49.426;2023-07-29T05:33:05;7.47;;;3.50;;
67191;SDS011;54120;53.504;49.426;2023-07-29T05:35:33;8.73;;;3.70;;
67191;SDS011;54120;53.504;49.426;2023-07-29T05:37:59;8.27;;;3.38;;
67191;SDS011;54120;53.504;49.426;2023-07-29T05:40:25;7.28;;;3.40;;
67191;SDS011;54120;53.504;49.426;2023-07-29T05:42:51;5.55;;;3.55;;
67191;SDS011;54120;53.504;49.426;2023-07-29T05:45:17;10.93;;;3.63;;
67191;SDS011;54120;53.504;49.426;2023-07-29T05:47:43;6.82;;;3.53;;
67191;SDS011;54120;53.504;49.426;2023-07-29T05:50:09;7.07;;;3.60;;
67191;SDS011;54120;53.504;49.426;2023-07-29T05:52:36;5.57;;;3.72;;
67191;SDS011;54120;53.504;49.426;2023-07-29T05:55:02;10.00;;;3.50;;
67191;SDS011;54120;53.504;49.426;2023-07-29T05:57:29;6.97;;;3.33;;
67191;SDS011;54120;53.504;49.426;2023-07-29T05:59:55;14.10;;;4.47;;
67191;SDS011;54120;53.504;49.426;2023-07-29T06:02:21;5.97;;;3.30;;
67191;SDS011;54120;53.504;49.426;2023-07-29T06:04:47;6.55;;;3.72;;
67191;SDS011;54120;53.504;49.426;2023-07-29T06:07:13;8.45;;;3.72;;
67191;SDS011;54120;53.504;49.426;2023-07-29T06:09:39;7.68;;;3.58;;
67191;SDS011;54120;53.504;49.426;2023-07-29T06:12:06;7.97;;;3.22;;
67191;SDS011;54120;53.504;49.426;2023-07-29T06:14:32;8.32;;;3.00;;
67191;SDS011;54120;53.504;49.426;2023-07-29T06:16:58;9.10;;;3.45;;
67191;SDS011;54120;53.504;49.426;2023-07-29T06:19:24;5.65;;;3.50;;
67191;SDS011;54120;53.504;49.426;2023-07-29T06:21:50;7.65;;;3.20;;
67191;SDS011;54120;53.504;49.426;2023-07-29T06:24:16;8.30;;;3.70;;
67191;SDS011;54120;53.504;49.426;2023-07-29T06:26:42;7.72;;;3.58;;
67191;SDS011;54120;53.504;49.426;2023-07-29T06:29:09;5.68;;;3.40;;
67191;SDS011;54120;53.504;49.426;2023-07-29T06:31:35;6.57;;;3.13;;
67191;SDS011;54120;53.504;49.426;2023-07-29T06:34:01;8.00;;;3.50;;
67191;SDS011;54120;53.504;49.426;2023-07-29T06:36:27;6.78;;;3.58;;
67191;SDS011;54120;53.504;49.426;2023-07-29T06:38:53;6.78;;;3.25;;
67191;SDS011;54120;53.504;49.426;2023-07-29T06:41:19;4.68;;;3.47;;
67191;SDS011;54120;53.504;49.426;2023-07-29T06:43:45;4.60;;;3.15;;
67191;SDS011;54120;53.504;49.426;2023-07-29T06:46:11;7.82;;;3.25;;
67191;SDS011;54120;53.504;49.426;2023-07-29T06:48:37;5.60;;;3.42;;
67191;SDS011;54120;53.504;49.426;2023-07-29T06:51:03;8.60;;;3.83;;
67191;SDS011;54120;53.504;49.426;2023-07-29T06:53:29;5.15;;;3.28;;
67191;SDS011;54120;53.504;49.426;2023-07-29T06:55:55;6.38;;;3.15;;
67191;SDS011;54120;53.504;49.426;2023-07-29T06:58:21;5.20;;;3.03;;
67191;SDS011;54120;53.504;49.426;2023-07-29T07:00:47;7.30;;;3.13;;
67191;SDS011;54120;53.504;49.426;2023-07-29T07:03:13;6.18;;;3.40;;
67191;SDS011;54120;53.504;49.426;2023-07-29T07:05:39;5.43;;;3.50;;
67191;SDS011;54120;53.504;49.426;2023-07-29T07:08:06;6.88;;;3.58;;
67191;SDS011;54120;53.504;49.426;2023-07-29T07:10:32;8.40;;;3.33;;
67191;SDS011;54120;53.504;49.426;2023-07-29T07:12:59;5.35;;;2.85;;
67191;SDS011;54120;53.504;49.426;2023-07-29T07:15:25;6.85;;;3.15;;
67191;SDS011;54120;53.504;49.426;2023-07-29T07:17:51;10.88;;;3.28;;
67191;SDS011;54120;53.504;49.426;2023-07-29T07:20:17;4.22;;;2.78;;
67191;SDS011;54120;53.504;49.426;2023-07-29T07:22:43;7.63;;;2.92;;
67191;SDS011;54120;53.504;49.426;2023-07-29T07:25:09;4.50;;;3.05;;
67191;SDS011;54120;53.504;49.426;2023-07-29T07:27:36;9.27;;;3.13;;
67191;SDS011;54120;53.504;49.426;2023-07-29T07:30:04;6.90;;;3.05;;
67191;SDS011;54120;53.504;49.426;2023-07-29T07:32:30;5.68;;;3.30;;
67191;SDS011;54120;53.504;49.426;2023-07-29T07:34:56;8.25;;;2.97;;
67191;SDS011;54120;53.504;49.426;2023-07-29T07:37:22;5.10;;;2.83;;
67191;SDS011;54120;53.504;49.426;2023-07-29T07:39:48;5.90;;;3.10;;
67191;SDS011;54120;53.504;49.426;2023-07-29T07:42:14;4.50;;;3.20;;
67191;SDS011;54120;53.504;49.426;2023-07-29T07:44:40;4.82;;;3.17;;
67191;SDS011;54120;53.504;49.426;2023-07-29T07:47:06;7.85;;;3.40;;
67191;SDS011;54120;53.504;49.426;2023-07-29T07:49:32;8.07;;;3.70;;
67191;SDS011;54120;53.504;49.426;2023-07-29T07:51:58;11.57;;;3.58;;
67191;SDS011;54120;53.504;49.426;2023-07-29T07:54:24;5.05;;;3.60;;
67191;SDS011;54120;53.504;49.426;2023-07-29T07:56:50;9.20;;;3.70;;
67191;SDS011;54120;53.504;49.426;2023-07-29T07:59:16;6.88;;;3.67;;
67191;SDS011;54120;53.504;49.426;2023-07-29T08:01:42;6.93;;;3.83;;
67191;SDS011;54120;53.504;49.426;2023-07-29T08:04:12;8.45;;;3.80;;
67191;SDS011;54120;53.504;49.426;2023-07-29T08:06:38;6.57;;;3.65;;
67191;SDS011;54120;53.504;49.426;2023-07-29T08:09:04;4.28;;;3.88;;
67191;SDS011;54120;53.504;49.426;2023-07-29T08:11:30;6.97;;;3.60;;
67191;SDS011;54120;53.504;49.426;2023-07-29T08:13:56;9.90;;;3.42;;
67191;SDS011;54120;53.504;49.426;2023-07-29T08:16:23;4.75;;;3.20;;
67191;SDS011;54120;53.504;49.426;2023-07-29T08:18:49;7.93;;;3.90;;
67191;SDS011;54120;53.504;49.426;2023-07-29T08:21:15;9.77;;;3.65;;
67191;SDS011;54120;53.504;49.426;2023-07-29T08:23:41;8.88;;;3.53;;
67191;SDS011;54120;53.504;49.426;2023-07-29T08:26:07;5.35;;;3.55;;
67191;SDS011;54120;53.504;49.426;2023-07-29T08:31:01;6.95;;;3.30;;
67191;SDS011;54120;53.504;49.426;2023-07-29T08:33:28;7.53;;;3.40;;
67191;SDS011;54120;53.504;49.426;2023-07-29T08:35:54;5.95;;;3.50;;
67191;SDS011;54120;53.504;49.426;2023-07-29T08:38:20;9.77;;;3.75;;
67191;SDS011;54120;53.504;49.426;2023-07-29T08:40:52;8.02;;;3.78;;
67191;SDS011;54120;53.504;49.426;2023-07-29T08:43:26;4.65;;;3.63;;
67191;SDS011;54120;53.504;49.426;2023-07-29T08:45:58;6.22;;;3.42;;
67191;SDS011;54120;53.504;49.426;2023-07-29T08:48:43;7.70;;;3.83;;
67191;SDS011;54120;53.504;49.426;2023-07-29T08:51:09;8.20;;;3.67;;
67191;SDS011;54120;53.504;49.426;2023-07-29T08:53:37;6.32;;;4.00;;
67191;SDS011;54120;53.504;49.426;2023-07-29T08:56:03;5.43;;;3.85;;
67191;SDS011;54120;53.504;49.426;2023-07-29T08:58:30;6.68;;;3.38;;
67191;SDS011;54120;53.504;49.426;2023-07-29T09:00:57;4.18;;;3.35;;
67191;SDS011;54120;53.504;49.426;2023-07-29T09:03:23;6.18;;;3.90;;
67191;SDS011;54120;53.504;49.426;2023-07-29T09:05:50;9.98;;;3.85;;
67191;SDS011;54120;53.504;49.426;2023-07-29T09:08:16;6.15;;;4.00;;
67191;SDS011;54120;53.504;49.426;2023-07-29T09:10:43;5.53;;;3.58;;
67191;SDS011;54120;53.504;49.426;2023-07-29T09:13:09;8.35;;;3.67;;
67191;SDS011;54120;53.504;49.426;2023-07-29T09:15:35;13.52;;;3.60;;
67191;SDS011;54120;53.504;49.426;2023-07-29T09:18:09;6.68;;;3.58;;
67191;SDS011;54120;53.504;49.426;2023-07-29T09:20:45;10.32;;;3.70;;
67191;SDS011;54120;53.504;49.426;2023-07-29T09:23:13;5.78;;;3.50;;
67191;SDS011;54120;53.504;49.426;2023-07-29T09:25:39;9.20;;;3.70;;
67191;SDS011;54120;53.504;49.426;2023-07-29T09:28:10;7.60;;;3.65;;
67191;SDS011;54120;53.504;49.426;2023-07-29T09:30:42;8.20;;;3.60;;
67191;SDS011;54120;53.504;49.426;2023-07-29T09:33:10;9.18;;;4.03;;
67191;SDS011;54120;53.504;49.426;2023-07-29T09:35:37;6.30;;;3.53;;
67191;SDS011;54120;53.504;49.426;2023-07-29T09:38:06;8.15;;;3.15;;
67191;SDS011;54120;53.504;49.426;2023-07-29T09:40:36;11.60;;;3.40;;
67191;SDS011;54120;53.504;49.426;2023-07-29T09:43:06;8.88;;;3.45;;
67191;SDS011;54120;53.504;49.426;2023-07-29T09:45:33;10.02;;;3.50;;
67191;SDS011;54120;53.504;49.426;2023-07-29T09:48:00;11.48;;;3.90;;
67191;SDS011;54120;53.504;49.426;2023-07-29T09:50:28;6.22;;;3.65;;
67191;SDS011;54120;53.504;49.426;2023-07-29T09:52:55;8.98;;;3.50;;
67191;SDS011;54120;53.504;49.426;2023-07-29T09:55:25;6.03;;;3.42;;
67191;SDS011;54120;53.504;49.426;2023-07-29T09:57:59;10.27;;;4.25;;
67191;SDS011;54120;53.504;49.426;2023-07-29T10:00:27;7.28;;;3.95;;
67191;SDS011;54120;53.504;49.426;2023-07-29T10:02:54;5.28;;;3.58;;
67191;SDS011;54120;53.504;49.426;2023-07-29T10:05:22;9.10;;;3.58;;
67191;SDS011;54120;53.504;49.426;2023-07-29T10:07:50;8.20;;;3.80;;
67191;SDS011;54120;53.504;49.426;2023-07-29T10:10:17;6.03;;;3.72;;
67191;SDS011;54120;53.504;49.426;2023-07-29T10:12:43;5.28;;;3.53;;
67191;SDS011;54120;53.504;49.426;2023-07-29T10:15:10;7.63;;;3.80;;
67191;SDS011;54120;53.504;49.426;2023-07-29T10:17:36;6.72;;;3.60;;
67191;SDS011;54120;53.504;49.426;2023-07-29T10:20:04;11.63;;;3.58;;
67191;SDS011;54120;53.504;49.426;2023-07-29T10:22:33;7.53;;;3.72;;
67191;SDS011;54120;53.504;49.426;2023-07-29T10:25:15;5.50;;;3.22;;
67191;SDS011;54120;53.504;49.426;2023-07-29T10:27:53;6.75;;;3.20;;
67191;SDS011;54120;53.504;49.426;2023-07-29T10:30:23;9.38;;;3.40;;
67191;SDS011;54120;53.504;49.426;2023-07-29T10:32:50;4.85;;;3.30;;
67191;SDS011;54120;53.504;49.426;2023-07-29T10:35:18;7.65;;;2.97;;
67191;SDS011;54120;53.504;49.426;2023-07-29T10:37:45;9.73;;;3.33;;
67191;SDS011;54120;53.504;49.426;2023-07-29T10:40:12;9.25;;;3.20;;
67191;SDS011;54120;53.504;49.426;2023-07-29T10:42:38;7.82;;;3.10;;
67191;SDS011;54120;53.504;49.426;2023-07-29T10:45:24;9.63;;;3.53;;
67191;SDS011;54120;53.504;49.426;2023-07-29T10:47:50;5.40;;;3.30;;
67191;SDS011;54120;53.504;49.426;2023-07-29T10:50:20;6.32;;;2.95;;
67191;SDS011;54120;53.504;49.426;2023-07-29T10:52:50;5.30;;;3.28;;
67191;SDS011;54120;53.504;49.426;2023-07-29T10:57:51;8.77;;;2.90;;
67191;SDS011;54120;53.504;49.426;2023-07-29T11:00:19;9.77;;;2.90;;
67191;SDS011;54120;53.504;49.426;2023-07-29T11:03:09;5.80;;;3.10;;
67191;SDS011;54120;53.504;49.426;2023-07-29T11:05:42;8.40;;;2.85;;
67191;SDS011;54120;53.504;49.426;2023-07-29T11:08:20;8.27;;;3.22;;
67191;SDS011;54120;53.504;49.426;2023-07-29T11:13:26;6.72;;;3.22;;
67191;SDS011;54120;53.504;49.426;2023-07-29T11:15:53;5.57;;;3.17;;
67191;SDS011;54120;53.504;49.426;2023-07-29T11:18:20;8.00;;;3.45;;
67191;SDS011;54120;53.504;49.426;2023-07-29T11:20:46;6.45;;;2.90;;
67191;SDS011;54120;53.504;49.426;2023-07-29T11:23:13;10.98;;;4.15;;
67191;SDS011;54120;53.504;49.426;2023-07-29T11:25:39;9.90;;;3.75;;
67191;SDS011;54120;53.504;49.426;2023-07-29T11:28:05;5.93;;;3.50;;
67191;SDS011;54120;53.504;49.426;2023-07-29T11:30:32;7.60;;;3.20;;
67191;SDS011;54120;53.504;49.426;2023-07-29T11:32:59;8.80;;;3.75;;
67191;SDS011;54120;53.504;49.426;2023-07-29T11:35:25;9.07;;;3.50;;
67191;SDS011;54120;53.504;49.426;2023-07-29T11:37:52;12.52;;;3.70;;
67191;SDS011;54120;53.504;49.426;2023-07-29T11:40:20;7.43;;;4.90;;
67191;SDS011;54120;53.504;49.426;2023-07-29T11:42:48;12.35;;;9.32;;
67191;SDS011;54120;53.504;49.426;2023-07-29T11:45:18;17.83;;;10.45;;
67191;SDS011;54120;53.504;49.426;2023-07-29T11:47:45;14.13;;;9.80;;
67191;SDS011;54120;53.504;49.426;2023-07-29T11:50:12;21.83;;;11.25;;
67191;SDS011;54120;53.504;49.426;2023-07-29T11:52:40;14.88;;;5.72;;
67191;SDS011;54120;53.504;49.426;2023-07-29T11:55:08;8.73;;;3.33;;
67191;SDS011;54120;53.504;49.426;2023-07-29T11:57:37;7.30;;;3.28;;
67191;SDS011;54120;53.504;49.426;2023-07-29T12:00:05;4.97;;;3.10;;
67191;SDS011;54120;53.504;49.426;2023-07-29T12:02:42;6.50;;;2.97;;
67191;SDS011;54120;53.504;49.426;2023-07-29T12:05:12;5.35;;;2.72;;
67191;SDS011;54120;53.504;49.426;2023-07-29T12:07:41;9.82;;;3.40;;
67191;SDS011;54120;53.504;49.426;2023-07-29T12:10:08;72.30;;;6.07;;
67191;SDS011;54120;53.504;49.426;2023-07-29T12:12:53;36.22;;;4.53;;
67191;SDS011;54120;53.504;49.426;2023-07-29T12:15:22;24.98;;;4.50;;
67191;SDS011;54120;53.504;49.426;2023-07-29T12:17:53;15.18;;;4.25;;
67191;SDS011;54120;53.504;49.426;2023-07-29T12:20:22;15.77;;;4.20;;
67191;SDS011;54120;53.504;49.426;2023-07-29T12:22:58;16.23;;;4.38;;
67191;SDS011;54120;53.504;49.426;2023-07-29T12:25:30;18.80;;;6.32;;
67191;SDS011;54120;53.504;49.426;2023-07-29T12:28:02;15.63;;;5.55;;
67191;SDS011;54120;53.504;49.426;2023-07-29T12:30:32;14.52;;;4.90;;
67191;SDS011;54120;53.504;49.426;2023-07-29T12:32:58;9.45;;;4.20;;
67191;SDS011;54120;53.504;49.426;2023-07-29T12:35:24;9.00;;;4.50;;
67191;SDS011;54120;53.504;49.426;2023-07-29T12:37:59;7.72;;;3.72;;
67191;SDS011;54120;53.504;49.426;2023-07-29T12:40:25;10.65;;;4.53;;
67191;SDS011;54120;53.504;49.426;2023-07-29T12:42:51;10.25;;;4.80;;
67191;SDS011;54120;53.504;49.426;2023-07-29T12:45:18;9.63;;;4.18;;
67191;SDS011;54120;53.504;49.426;2023-07-29T12:47:44;14.23;;;5.43;;
67191;SDS011;54120;53.504;49.426;2023-07-29T12:50:10;13.95;;;5.03;;
67191;SDS011;54120;53.504;49.426;2023-07-29T12:52:36;9.35;;;4.20;;
67191;SDS011;54120;53.504;49.426;2023-07-29T12:55:03;10.23;;;4.82;;
67191;SDS011;54120;53.504;49.426;2023-07-29T12:57:29;11.07;;;4.93;;
67191;SDS011;54120;53.504;49.426;2023-07-29T12:59:55;11.35;;;4.78;;
67191;SDS011;54120;53.504;49.426;2023-07-29T13:02:21;10.10;;;4.70;;
67191;SDS011;54120;53.504;49.426;2023-07-29T13:04:47;10.60;;;4.55;;
67191;SDS011;54120;53.504;49.426;2023-07-29T13:07:14;11.07;;;4.97;;
67191;SDS011;54120;53.504;49.426;2023-07-29T13:09:40;9.18;;;4.05;;
67191;SDS011;54120;53.504;49.426;2023-07-29T13:12:06;10.23;;;4.05;;
67191;SDS011;54120;53.504;49.426;2023-07-29T13:14:32;5.45;;;3.35;;
67191;SDS011;54120;53.504;49.426;2023-07-29T13:16:58;5.35;;;3.47;;
67191;SDS011;54120;53.504;49.426;2023-07-29T13:19:24;7.57;;;3.88;;
67191;SDS011;54120;53.504;49.426;2023-07-29T13:21:50;7.10;;;3.10;;
67191;SDS011;54120;53.504;49.426;2023-07-29T13:24:16;6.93;;;3.45;;
67191;SDS011;54120;53.504;49.426;2023-07-29T13:26:41;5.55;;;3.38;;
67191;SDS011;54120;53.504;49.426;2023-07-29T13:29:08;8.05;;;3.90;;
67191;SDS011;54120;53.504;49.426;2023-07-29T13:31:34;5.72;;;3.45;;
67191;SDS011;54120;53.504;49.426;2023-07-29T13:34:00;5.97;;;3.10;;
67191;SDS011;54120;53.504;49.426;2023-07-29T13:36:26;8.98;;;3.92;;
67191;SDS011;54120;53.504;49.426;2023-07-29T13:38:52;5.50;;;3.63;;
67191;SDS011;54120;53.504;49.426;2023-07-29T13:41:18;6.05;;;3.42;;
67191;SDS011;54120;53.504;49.426;2023-07-29T13:43:44;8.13;;;3.80;;
67191;SDS011;54120;53.504;49.426;2023-07-29T13:46:10;8.20;;;4.15;;
67191;SDS011;54120;53.504;49.426;2023-07-29T13:48:36;9.82;;;4.15;;
67191;SDS011;54120;53.504;49.426;2023-07-29T13:51:02;8.05;;;4.82;;
67191;SDS011;54120;53.504;49.426;2023-07-29T13:53:28;15.98;;;8.43;;
67191;SDS011;54120;53.504;49.426;2023-07-29T13:55:54;14.57;;;7.95;;
67191;SDS011;54120;53.504;49.426;2023-07-29T13:58:20;9.90;;;6.63;;
67191;SDS011;54120;53.504;49.426;2023-07-29T14:00:46;7.45;;;5.22;;
67191;SDS011;54120;53.504;49.426;2023-07-29T14:03:12;13.18;;;4.53;;
67191;SDS011;54120;53.504;49.426;2023-07-29T14:05:38;7.07;;;4.82;;
67191;SDS011;54120;53.504;49.426;2023-07-29T14:08:05;11.52;;;5.20;;
67191;SDS011;54120;53.504;49.426;2023-07-29T14:10:31;8.32;;;5.20;;
67191;SDS011;54120;53.504;49.426;2023-07-29T14:12:57;8.40;;;5.28;;
67191;SDS011;54120;53.504;49.426;2023-07-29T14:15:23;7.72;;;5.22;;
67191;SDS011;54120;53.504;49.426;2023-07-29T14:17:49;9.43;;;5.00;;
67191;SDS011;54120;53.504;49.426;2023-07-29T14:20:15;6.22;;;4.90;;
67191;SDS011;54120;53.504;49.426;2023-07-29T14:22:41;7.13;;;4.78;;
67191;SDS011;54120;53.504;49.426;2023-07-29T14:25:07;8.18;;;4.57;;
67191;SDS011;54120;53.504;49.426;2023-07-29T14:27:34;8.82;;;5.00;;
67191;SDS011;54120;53.504;49.426;2023-07-29T14:30:00;6.13;;;4.53;;
67191;SDS011;54120;53.504;49.426;2023-07-29T14:32:27;8.10;;;4.55;;
67191;SDS011;54120;53.504;49.426;2023-07-29T14:34:53;8.30;;;5.03;;
67191;SDS011;54120;53.504;49.426;2023-07-29T14:37:19;8.00;;;4.68;;
67191;SDS011;54120;53.504;49.426;2023-07-29T14:39:45;6.80;;;3.92;;
67191;SDS011;54120;53.504;49.426;2023-07-29T14:42:11;10.38;;;4.68;;